createdAt,value
2023-05-24T00:01:29.344Z,80.47
2023-05-24T00:04:52.956Z,80.96
2023-05-24T00:08:16.647Z,81.19
2023-05-24T00:11:38.366Z,81.03
2023-05-24T00:15:00.399Z,81.20
2023-05-24T00:18:26.289Z,80.85
2023-05-24T00:21:53.132Z,79.85
2023-05-24T00:25:19.357Z,79.74
2023-05-24T00:28:43.538Z,79.72
2023-05-24T00:32:05.607Z,79.60
2023-05-24T00:35:27.362Z,79.68
2023-05-24T00:38:49.153Z,79.61
2023-05-24T00:42:10.805Z,79.65
2023-05-24T00:45:34.782Z,79.34
2023-05-24T00:49:00.266Z,79.85
2023-05-24T00:52:22.639Z,79.91
2023-05-24T00:55:44.399Z,80.20
2023-05-24T00:59:06.194Z,79.60
2023-05-24T01:02:27.888Z,80.22
2023-05-24T01:05:52.011Z,80.12
2023-05-24T01:09:45.594Z,79.56
2023-05-24T01:13:39.383Z,79.73
2023-05-24T01:17:15.096Z,80.01
2023-05-24T01:20:38.825Z,80.29
2023-05-24T01:24:25.691Z,80.36
2023-05-24T01:27:48.303Z,80.57
2023-05-24T01:31:12.515Z,80.62
2023-05-24T01:34:34.381Z,80.85
2023-05-24T01:37:59.051Z,80.65
2023-05-24T01:41:39.306Z,80.93
2023-05-24T01:45:15.256Z,80.38
2023-05-24T01:48:51.793Z,80.52
2023-05-24T01:52:16.958Z,80.85
2023-05-24T01:55:42.273Z,80.81
2023-05-24T01:59:05.445Z,80.77
2023-05-24T02:02:27.471Z,81.06
2023-05-24T02:05:49.272Z,81.36
2023-05-24T02:09:11.097Z,81.44
2023-05-24T02:12:33.386Z,81.37
2023-05-24T02:15:59.724Z,81.57
2023-05-24T02:19:23.616Z,81.57
2023-05-24T02:22:47.709Z,81.27
2023-05-24T02:26:11.687Z,81.06
2023-05-24T02:29:33.317Z,80.98
2023-05-24T02:33:00.677Z,81.06
2023-05-24T02:36:23.639Z,81.22
2023-05-24T02:39:45.323Z,81.78
2023-05-24T02:43:09.714Z,82.02
2023-05-24T02:46:31.393Z,81.81
2023-05-24T02:49:54.001Z,80.88
2023-05-24T02:53:18.160Z,80.96
2023-05-24T02:56:42.078Z,81.45
2023-05-24T03:00:06.408Z,82.57
2023-05-24T03:03:30.693Z,82.81
2023-05-24T03:06:54.874Z,83.07
2023-05-24T03:10:21.328Z,83.35
2023-05-24T03:13:45.574Z,83.90
2023-05-24T03:17:07.178Z,83.75
2023-05-24T03:20:28.922Z,83.31
2023-05-24T03:23:50.650Z,82.96
2023-05-24T03:27:12.382Z,82.81
2023-05-24T03:30:38.806Z,82.81
2023-05-24T03:34:00.737Z,82.40
2023-05-24T03:37:22.362Z,82.56
2023-05-24T03:40:46.351Z,82.66
2023-05-24T03:44:08.274Z,82.46
2023-05-24T03:47:33.378Z,81.87
2023-05-24T03:50:55.042Z,82.12
2023-05-24T03:54:18.061Z,82.95
2023-05-24T03:57:39.678Z,83.55
2023-05-24T04:01:04.373Z,83.56
2023-05-24T04:04:28.162Z,83.55
2023-05-24T04:07:51.857Z,83.84
2023-05-24T04:11:15.745Z,84.15
2023-05-24T04:14:38.026Z,83.46
2023-05-24T04:18:00.662Z,82.61
2023-05-24T04:21:25.730Z,83.75
2023-05-24T04:24:50.014Z,84.56
2023-05-24T04:28:11.736Z,84.98
2023-05-24T04:31:34.269Z,86.21
2023-05-24T04:34:56.642Z,87.32
2023-05-24T04:38:21.785Z,87.08
2023-05-24T04:41:43.692Z,86.93
2023-05-24T04:45:06.133Z,87.43
2023-05-24T04:48:30.050Z,87.07
2023-05-24T04:51:55.237Z,86.22
2023-05-24T04:55:19.668Z,84.73
2023-05-24T04:58:43.850Z,84.52
2023-05-24T05:02:05.718Z,84.90
2023-05-24T05:05:27.447Z,84.41
2023-05-24T05:08:49.067Z,83.19
2023-05-24T05:12:12.997Z,83.15
2023-05-24T05:15:34.763Z,82.61
2023-05-24T05:18:56.463Z,82.80
2023-05-24T05:22:18.201Z,82.33
2023-05-24T05:25:42.037Z,81.24
2023-05-24T05:29:03.708Z,79.82
2023-05-24T05:32:27.882Z,80.16
2023-05-24T05:35:49.622Z,79.47
2023-05-24T05:39:14.096Z,79.47
2023-05-24T05:42:35.759Z,79.48
2023-05-24T05:45:57.585Z,79.84
2023-05-24T05:49:19.599Z,79.45
2023-05-24T05:52:41.359Z,79.94
2023-05-24T05:56:03.016Z,80.00
2023-05-24T05:59:24.617Z,79.28
2023-05-24T06:02:46.650Z,79.15
2023-05-24T06:06:08.401Z,78.81
2023-05-24T06:09:30.182Z,79.22
2023-05-24T06:12:53.983Z,79.69
2023-05-24T06:16:18.822Z,79.69
2023-05-24T06:19:43.629Z,79.70
2023-05-24T06:23:07.494Z,78.92
2023-05-24T06:26:31.366Z,77.86
2023-05-24T06:29:53.030Z,76.82
2023-05-24T06:33:17.391Z,75.07
2023-05-24T06:36:43.150Z,75.05
2023-05-24T06:40:09.608Z,73.32
2023-05-24T06:43:33.484Z,72.54
2023-05-24T06:46:55.253Z,71.87
2023-05-24T06:50:17.028Z,70.38
2023-05-24T06:53:38.632Z,70.89
2023-05-24T06:57:04.021Z,71.13
2023-05-24T07:00:25.667Z,71.12
2023-05-24T07:03:47.403Z,70.21
2023-05-24T07:07:13.120Z,69.07
2023-05-24T07:10:34.810Z,69.95
2023-05-24T07:13:57.356Z,69.40
2023-05-24T07:17:21.840Z,69.35
2023-05-24T07:20:43.957Z,66.78
2023-05-24T07:24:06.205Z,66.26
2023-05-24T07:27:27.948Z,69.42
2023-05-24T07:30:52.419Z,70.26
2023-05-24T07:34:16.975Z,70.10
2023-05-24T07:37:39.143Z,70.68
2023-05-24T07:41:03.402Z,70.04
2023-05-24T07:44:25.175Z,69.39
2023-05-24T07:47:46.907Z,70.01
2023-05-24T07:51:11.322Z,69.22
2023-05-24T07:54:32.988Z,71.13
2023-05-24T07:57:54.638Z,72.62
2023-05-24T08:01:16.270Z,73.74
2023-05-24T08:04:41.159Z,73.60
2023-05-24T08:08:02.947Z,71.25
2023-05-24T08:11:24.661Z,70.05
2023-05-24T08:14:48.507Z,70.35
2023-05-24T08:18:10.395Z,70.01
2023-05-24T08:21:32.068Z,69.13
2023-05-24T08:24:53.848Z,70.12
2023-05-24T08:28:18.273Z,68.84
2023-05-24T08:31:40.011Z,69.88
2023-05-24T08:35:19.434Z,69.46
2023-05-24T08:38:42.359Z,68.61
2023-05-24T08:42:09.498Z,66.64
2023-05-24T08:45:36.228Z,68.81
2023-05-24T08:48:58.746Z,70.64
2023-05-24T08:52:21.375Z,70.04
2023-05-24T08:55:44.388Z,68.33
2023-05-24T08:59:08.615Z,67.62
2023-05-24T09:02:33.536Z,67.69
2023-05-24T09:05:55.659Z,66.35
2023-05-24T09:09:18.978Z,66.63
2023-05-24T09:12:45.660Z,65.86
2023-05-24T09:16:07.672Z,64.54
2023-05-24T09:19:29.485Z,65.60
2023-05-24T09:22:53.265Z,64.03
2023-05-24T09:26:15.214Z,63.88
2023-05-24T09:29:41.485Z,64.61
2023-05-24T09:33:05.610Z,65.12
2023-05-24T09:36:30.093Z,64.60
2023-05-24T09:39:55.500Z,64.45
2023-05-24T09:43:17.090Z,60.73
2023-05-24T09:46:41.043Z,62.18
2023-05-24T09:50:04.422Z,62.34
2023-05-24T09:53:26.791Z,62.29
2023-05-24T09:56:51.000Z,64.21
2023-05-24T10:00:16.737Z,64.12
2023-05-24T10:03:38.767Z,63.60
2023-05-24T10:07:03.198Z,63.86
2023-05-24T10:10:30.882Z,63.36
2023-05-24T10:13:52.680Z,64.24
2023-05-24T10:17:14.557Z,63.23
2023-05-24T10:20:37.365Z,61.51
2023-05-24T10:24:03.752Z,61.65
2023-05-24T10:27:33.735Z,62.95
2023-05-24T10:31:15.782Z,62.48
2023-05-24T10:34:39.168Z,61.24
2023-05-24T10:38:06.636Z,61.68
2023-05-24T10:41:28.416Z,62.28
2023-05-24T10:44:52.735Z,61.23
2023-05-24T10:48:17.091Z,60.16
2023-05-24T10:51:41.497Z,61.22
2023-05-24T10:55:08.546Z,59.78
2023-05-24T10:59:01.001Z,58.95
2023-05-24T11:02:30.039Z,58.06
2023-05-24T11:05:56.881Z,58.34
2023-05-24T11:09:20.612Z,58.36
2023-05-24T11:12:45.189Z,58.21
2023-05-24T11:16:09.657Z,56.63
2023-05-24T11:19:39.074Z,56.94
2023-05-24T11:23:03.853Z,56.83
2023-05-24T11:26:25.768Z,55.35
2023-05-24T11:29:48.647Z,55.01
2023-05-24T11:33:22.616Z,54.68
2023-05-24T11:36:45.408Z,57.23
2023-05-24T11:40:10.716Z,58.64
2023-05-24T11:43:32.439Z,56.88
2023-05-24T11:46:59.263Z,56.80
2023-05-24T11:50:26.559Z,56.95
2023-05-24T11:53:48.492Z,56.40
2023-05-24T11:57:16.474Z,56.29
2023-05-24T12:00:40.516Z,56.05
2023-05-24T12:04:02.454Z,56.81
2023-05-24T12:07:24.120Z,57.69
2023-05-24T12:10:46.947Z,57.55
2023-05-24T12:14:19.065Z,58.97
2023-05-24T12:17:41.551Z,58.84
2023-05-24T12:21:08.856Z,60.11
2023-05-24T12:24:33.377Z,58.42
2023-05-24T12:27:56.594Z,57.47
2023-05-24T12:31:21.791Z,57.74
2023-05-24T12:34:46.409Z,56.89
2023-05-24T12:38:11.637Z,57.85
2023-05-24T12:41:33.466Z,57.20
2023-05-24T12:44:59.662Z,57.51
2023-05-24T12:48:21.379Z,57.62
2023-05-24T12:51:42.986Z,57.13
2023-05-24T12:55:04.951Z,56.71
2023-05-24T12:58:26.774Z,56.28
2023-05-24T13:01:51.804Z,56.77
2023-05-24T13:05:13.804Z,56.91
2023-05-24T13:08:40.003Z,57.26
2023-05-24T13:12:03.350Z,56.77
2023-05-24T13:15:27.464Z,57.91
2023-05-24T13:18:51.472Z,57.79
2023-05-24T13:22:13.846Z,56.33
2023-05-24T13:25:37.794Z,57.51
2023-05-24T13:32:28.871Z,56.09
2023-05-24T13:35:54.041Z,58.35
2023-05-24T13:39:18.160Z,57.89
2023-05-24T13:42:40.395Z,57.08
2023-05-24T13:46:06.732Z,57.51
2023-05-24T13:49:34.001Z,56.21
2023-05-24T13:52:56.162Z,55.80
2023-05-24T13:56:17.741Z,56.10
2023-05-24T13:59:39.330Z,55.51
2023-05-24T14:03:01.073Z,55.98
2023-05-24T14:06:22.821Z,55.40
2023-05-24T14:09:47.516Z,55.34
2023-05-24T14:13:36.683Z,55.20
2023-05-24T14:16:56.120Z,55.46
2023-05-24T14:20:22.620Z,55.21
2023-05-24T14:23:46.564Z,55.65
2023-05-24T14:27:08.226Z,55.06
2023-05-24T14:30:31.968Z,56.12
2023-05-24T14:33:53.805Z,55.82
2023-05-24T14:37:18.291Z,54.68
2023-05-24T14:40:40.995Z,54.85
2023-05-24T14:44:05.336Z,56.01
2023-05-24T14:47:26.962Z,54.87
2023-05-24T14:50:51.091Z,55.92
2023-05-24T14:54:15.179Z,56.39
2023-05-24T14:57:41.862Z,56.07
2023-05-24T15:01:07.063Z,56.58
2023-05-24T15:04:28.740Z,57.09
2023-05-24T15:07:52.668Z,56.73
2023-05-24T15:11:17.409Z,56.88
2023-05-24T15:14:39.042Z,56.76
2023-05-24T15:18:00.894Z,57.31
2023-05-24T15:21:25.874Z,57.56
2023-05-24T15:24:49.713Z,57.81
2023-05-24T15:28:12.933Z,57.42
2023-05-24T15:31:37.359Z,58.09
2023-05-24T15:35:04.566Z,57.65
2023-05-24T15:38:31.092Z,58.19
2023-05-24T15:41:52.917Z,58.36
2023-05-24T15:45:14.611Z,57.85
2023-05-24T15:48:39.099Z,57.83
2023-05-24T15:52:03.614Z,57.83
2023-05-24T15:55:29.098Z,58.25
2023-05-24T15:58:52.900Z,58.79
2023-05-24T16:05:43.745Z,58.15
2023-05-24T16:09:08.193Z,58.31
2023-05-24T16:12:33.027Z,58.05
2023-05-24T16:15:54.830Z,57.96
2023-05-24T16:19:16.554Z,57.93
2023-05-24T16:22:49.932Z,57.85
2023-05-24T16:26:14.286Z,58.56
2023-05-24T16:29:37.098Z,58.99
2023-05-24T16:32:58.919Z,59.61
2023-05-24T16:36:21.280Z,59.78
2023-05-24T16:39:42.867Z,59.12
2023-05-24T16:43:09.428Z,59.46
2023-05-24T16:46:36.569Z,59.55
2023-05-24T16:49:58.304Z,59.34
2023-05-24T16:53:26.802Z,59.96
2023-05-24T16:56:48.598Z,60.20
2023-05-24T17:00:10.751Z,60.53
2023-05-24T17:03:34.066Z,61.18
2023-05-24T17:06:55.837Z,60.65
2023-05-24T17:10:17.466Z,60.81
2023-05-24T17:13:39.149Z,61.13
2023-05-24T17:17:00.918Z,62.07
2023-05-24T17:20:23.030Z,60.38
2023-05-24T17:23:44.729Z,60.11
2023-05-24T17:27:09.036Z,60.98
2023-05-24T17:30:31.761Z,60.98
2023-05-24T17:33:53.358Z,60.51
2023-05-24T17:37:14.978Z,61.32
2023-05-24T17:40:39.053Z,62.06
2023-05-24T17:44:00.778Z,62.64
2023-05-24T17:47:22.773Z,63.16
2023-05-24T17:50:46.831Z,63.59
2023-05-24T17:54:08.484Z,63.65
2023-05-24T17:57:30.322Z,63.39
2023-05-24T18:00:52.181Z,63.47
2023-05-24T18:04:14.066Z,64.14
2023-05-24T18:07:37.876Z,64.59
2023-05-24T18:10:59.731Z,64.99
2023-05-24T18:14:23.547Z,64.57
2023-05-24T18:17:47.829Z,65.53
2023-05-24T18:21:13.126Z,66.11
2023-05-24T18:24:37.200Z,66.18
2023-05-24T18:28:04.030Z,66.42
2023-05-24T18:31:28.154Z,66.64
2023-05-24T18:34:49.733Z,67.52
2023-05-24T18:38:11.429Z,67.99
2023-05-24T18:41:33.080Z,67.70
2023-05-24T18:44:59.918Z,68.30
2023-05-24T18:48:21.719Z,69.04
2023-05-24T18:51:43.462Z,69.78
2023-05-24T18:55:10.886Z,69.01
2023-05-24T18:58:35.250Z,68.72
2023-05-24T19:01:56.971Z,69.53
2023-05-24T19:05:21.351Z,70.57
2023-05-24T19:08:42.962Z,71.00
2023-05-24T19:12:04.924Z,71.29
2023-05-24T19:15:29.151Z,72.25
2023-05-24T19:18:50.854Z,71.77
2023-05-24T19:22:12.438Z,71.49
2023-05-24T19:25:41.740Z,71.09
2023-05-24T19:29:04.173Z,71.49
2023-05-24T19:32:30.654Z,71.74
2023-05-24T19:35:52.296Z,70.78
2023-05-24T19:39:13.982Z,70.87
2023-05-24T19:42:40.210Z,70.79
2023-05-24T19:46:01.906Z,70.11
2023-05-24T19:49:25.983Z,70.59
2023-05-24T19:52:49.975Z,70.81
2023-05-24T19:56:11.705Z,71.21
2023-05-24T19:59:34.442Z,71.71
2023-05-24T20:02:59.818Z,71.81
2023-05-24T20:06:21.587Z,72.02
2023-05-24T20:09:45.453Z,71.81
2023-05-24T20:13:09.502Z,71.88
2023-05-24T20:16:31.473Z,72.05
2023-05-24T20:19:58.109Z,71.89
2023-05-24T20:23:27.263Z,72.32
2023-05-24T20:26:48.990Z,72.95
2023-05-24T20:30:12.614Z,73.24
2023-05-24T20:33:39.198Z,73.16
2023-05-24T20:37:03.413Z,72.36
2023-05-24T20:40:25.379Z,72.59
2023-05-24T20:43:47.356Z,73.12
2023-05-24T20:47:09.021Z,72.34
2023-05-24T20:50:30.751Z,72.99
2023-05-24T20:53:53.326Z,72.91
2023-05-24T20:57:19.799Z,73.10
2023-05-24T21:00:41.850Z,73.00
2023-05-24T21:04:03.884Z,73.44
2023-05-24T21:07:27.753Z,73.55
2023-05-24T21:10:50.122Z,73.87
2023-05-24T21:14:14.252Z,74.06
2023-05-24T21:17:35.966Z,74.33
2023-05-24T21:20:57.666Z,74.39
2023-05-24T21:24:19.317Z,74.28
2023-05-24T21:27:43.431Z,74.34
2023-05-24T21:31:06.963Z,74.54
2023-05-24T21:34:28.693Z,74.78
2023-05-24T21:37:50.284Z,74.70
2023-05-24T21:41:14.183Z,75.33
2023-05-24T21:44:38.126Z,75.44
2023-05-24T21:48:01.895Z,75.51
2023-05-24T21:51:24.834Z,75.45
2023-05-24T21:54:49.044Z,75.58
2023-05-24T21:58:12.857Z,76.10
2023-05-24T22:01:34.642Z,76.50
2023-05-24T22:04:58.513Z,76.98
2023-05-24T22:08:22.616Z,77.02
2023-05-24T22:11:44.235Z,77.29
2023-05-24T22:15:06.589Z,77.68
2023-05-24T22:18:30.426Z,77.82
2023-05-24T22:21:56.547Z,77.19
2023-05-24T22:25:19.601Z,77.13
2023-05-24T22:29:00.857Z,77.80
2023-05-24T22:32:22.757Z,78.33
2023-05-24T22:35:44.715Z,78.62
2023-05-24T22:39:09.101Z,78.66
2023-05-24T22:42:31.100Z,78.77
2023-05-24T22:45:55.060Z,78.90
2023-05-24T22:49:19.870Z,79.02
2023-05-24T22:52:46.598Z,79.20
2023-05-24T22:56:10.602Z,78.61
2023-05-24T22:59:35.419Z,78.53
2023-05-24T23:03:00.141Z,78.78
2023-05-24T23:06:21.955Z,78.35
2023-05-24T23:09:44.544Z,78.67
2023-05-24T23:13:08.894Z,78.84
2023-05-24T23:16:31.942Z,78.95
2023-05-24T23:19:59.325Z,79.12
2023-05-24T23:23:22.003Z,78.78
2023-05-24T23:26:46.033Z,78.83
2023-05-24T23:30:10.740Z,78.80
2023-05-24T23:33:32.388Z,78.66
2023-05-24T23:36:58.865Z,78.58
2023-05-24T23:40:20.961Z,78.72
2023-05-24T23:43:44.877Z,78.94
2023-05-24T23:47:06.720Z,78.99
2023-05-24T23:50:37.313Z,79.14
2023-05-24T23:54:04.677Z,79.16
2023-05-24T23:57:27.141Z,79.14
